sensor_id;sensor_type;location;lat;lon;timestamp;pressure;altitude;pressure_sealevel;temperature
40199;BMP280;25906;43.536;26.068;2023-07-02T00:00:31;98128.94;;;21.51
40199;BMP280;25906;43.536;26.068;2023-07-02T00:03:16;98120.94;;;21.45
40199;BMP280;25906;43.536;26.068;2023-07-02T00:06:02;98116.03;;;21.31
40199;BMP280;25906;43.536;26.068;2023-07-02T00:08:47;98111.38;;;21.12
40199;BMP280;25906;43.536;26.068;2023-07-02T00:11:32;98099.63;;;21.15
40199;BMP280;25906;43.536;26.068;2023-07-02T00:14:18;98099.50;;;20.89
40199;BMP280;25906;43.536;26.068;2023-07-02T00:17:03;98088.72;;;20.89
40199;BMP280;25906;43.536;26.068;2023-07-02T00:19:49;98084.13;;;21.21
40199;BMP280;25906;43.536;26.068;2023-07-02T00:22:36;98077.50;;;21.22
40199;BMP280;25906;43.536;26.068;2023-07-02T00:25:22;98079.47;;;21.22
40199;BMP280;25906;43.536;26.068;2023-07-02T00:28:07;98071.97;;;21.34
40199;BMP280;25906;43.536;26.068;2023-07-02T00:30:52;98088.34;;;21.49
40199;BMP280;25906;43.536;26.068;2023-07-02T00:33:38;98080.78;;;21.60
40199;BMP280;25906;43.536;26.068;2023-07-02T00:36:23;98080.41;;;21.69
40199;BMP280;25906;43.536;26.068;2023-07-02T00:39:09;98081.88;;;21.70
40199;BMP280;25906;43.536;26.068;2023-07-02T00:42:00;98078.25;;;21.81
40199;BMP280;25906;43.536;26.068;2023-07-02T00:44:45;98070.88;;;21.81
40199;BMP280;25906;43.536;26.068;2023-07-02T00:47:32;98084.56;;;21.83
40199;BMP280;25906;43.536;26.068;2023-07-02T00:50:18;98080.34;;;21.88
40199;BMP280;25906;43.536;26.068;2023-07-02T00:53:04;98080.25;;;21.94
40199;BMP280;25906;43.536;26.068;2023-07-02T00:55:49;98078.38;;;21.88
40199;BMP280;25906;43.536;26.068;2023-07-02T00:58:38;98070.19;;;21.81
40199;BMP280;25906;43.536;26.068;2023-07-02T01:01:26;98065.94;;;21.85
40199;BMP280;25906;43.536;26.068;2023-07-02T01:04:12;98062.94;;;21.89
40199;BMP280;25906;43.536;26.068;2023-07-02T01:06:58;98058.34;;;21.84
40199;BMP280;25906;43.536;26.068;2023-07-02T01:09:43;98064.78;;;21.81
40199;BMP280;25906;43.536;26.068;2023-07-02T01:12:29;98061.66;;;21.77
40199;BMP280;25906;43.536;26.068;2023-07-02T01:15:14;98069.84;;;21.84
40199;BMP280;25906;43.536;26.068;2023-07-02T01:18:00;98066.75;;;21.80
40199;BMP280;25906;43.536;26.068;2023-07-02T01:20:47;98067.88;;;21.72
40199;BMP280;25906;43.536;26.068;2023-07-02T01:23:33;98065.91;;;21.72
40199;BMP280;25906;43.536;26.068;2023-07-02T01:26:19;98066.09;;;21.61
40199;BMP280;25906;43.536;26.068;2023-07-02T01:29:17;98061.44;;;21.49
40199;BMP280;25906;43.536;26.068;2023-07-02T01:32:03;98073.63;;;21.50
40199;BMP280;25906;43.536;26.068;2023-07-02T01:34:49;98063.59;;;21.50
40199;BMP280;25906;43.536;26.068;2023-07-02T01:37:34;98062.88;;;21.50
40199;BMP280;25906;43.536;26.068;2023-07-02T01:40:22;98060.50;;;21.14
40199;BMP280;25906;43.536;26.068;2023-07-02T01:43:07;98066.88;;;21.30
40199;BMP280;25906;43.536;26.068;2023-07-02T01:45:53;98059.41;;;21.04
40199;BMP280;25906;43.536;26.068;2023-07-02T01:48:40;98062.22;;;21.12
40199;BMP280;25906;43.536;26.068;2023-07-02T01:51:26;98061.34;;;21.22
40199;BMP280;25906;43.536;26.068;2023-07-02T01:54:11;98063.53;;;21.24
40199;BMP280;25906;43.536;26.068;2023-07-02T01:56:57;98066.50;;;21.20
40199;BMP280;25906;43.536;26.068;2023-07-02T01:59:42;98069.81;;;21.13
40199;BMP280;25906;43.536;26.068;2023-07-02T02:02:28;98061.22;;;21.15
40199;BMP280;25906;43.536;26.068;2023-07-02T02:05:13;98063.31;;;21.22
40199;BMP280;25906;43.536;26.068;2023-07-02T02:07:58;98059.47;;;21.17
40199;BMP280;25906;43.536;26.068;2023-07-02T02:10:44;98069.81;;;21.13
40199;BMP280;25906;43.536;26.068;2023-07-02T02:13:29;98076.78;;;21.03
40199;BMP280;25906;43.536;26.068;2023-07-02T02:16:14;98076.34;;;20.99
40199;BMP280;25906;43.536;26.068;2023-07-02T02:19:01;98083.66;;;20.86
40199;BMP280;25906;43.536;26.068;2023-07-02T02:21:46;98077.56;;;20.85
40199;BMP280;25906;43.536;26.068;2023-07-02T02:24:31;98082.91;;;20.66
40199;BMP280;25906;43.536;26.068;2023-07-02T02:27:17;98078.53;;;20.63
40199;BMP280;25906;43.536;26.068;2023-07-02T02:30:03;98077.66;;;20.55
40199;BMP280;25906;43.536;26.068;2023-07-02T02:32:49;98076.06;;;20.47
40199;BMP280;25906;43.536;26.068;2023-07-02T02:35:34;98074.81;;;20.48
40199;BMP280;25906;43.536;26.068;2023-07-02T02:38:19;98069.66;;;20.50
40199;BMP280;25906;43.536;26.068;2023-07-02T02:41:05;98066.75;;;20.48
40199;BMP280;25906;43.536;26.068;2023-07-02T02:43:53;98068.22;;;20.30
40199;BMP280;25906;43.536;26.068;2023-07-02T02:46:38;98068.88;;;20.36
40199;BMP280;25906;43.536;26.068;2023-07-02T02:49:24;98065.53;;;20.49
40199;BMP280;25906;43.536;26.068;2023-07-02T02:52:09;98067.38;;;20.59
40199;BMP280;25906;43.536;26.068;2023-07-02T02:54:54;98074.19;;;20.60
40199;BMP280;25906;43.536;26.068;2023-07-02T02:57:40;98076.94;;;20.55
40199;BMP280;25906;43.536;26.068;2023-07-02T03:00:25;98075.34;;;20.65
40199;BMP280;25906;43.536;26.068;2023-07-02T03:03:14;98067.78;;;20.63
40199;BMP280;25906;43.536;26.068;2023-07-02T03:06:00;98066.41;;;20.57
40199;BMP280;25906;43.536;26.068;2023-07-02T03:08:45;98077.47;;;20.72
40199;BMP280;25906;43.536;26.068;2023-07-02T03:11:30;98076.81;;;20.85
40199;BMP280;25906;43.536;26.068;2023-07-02T03:14:16;98077.72;;;20.87
40199;BMP280;25906;43.536;26.068;2023-07-02T03:17:01;98078.63;;;20.77
40199;BMP280;25906;43.536;26.068;2023-07-02T03:19:48;98073.81;;;20.88
40199;BMP280;25906;43.536;26.068;2023-07-02T03:22:33;98079.44;;;20.90
40199;BMP280;25906;43.536;26.068;2023-07-02T03:25:19;98082.03;;;20.58
40199;BMP280;25906;43.536;26.068;2023-07-02T03:28:04;98083.56;;;20.54
40199;BMP280;25906;43.536;26.068;2023-07-02T03:30:50;98085.16;;;20.44
40199;BMP280;25906;43.536;26.068;2023-07-02T03:33:35;98076.88;;;20.60
40199;BMP280;25906;43.536;26.068;2023-07-02T03:36:20;98084.06;;;20.71
40199;BMP280;25906;43.536;26.068;2023-07-02T03:39:06;98076.75;;;20.29
40199;BMP280;25906;43.536;26.068;2023-07-02T03:41:51;98081.25;;;20.45
40199;BMP280;25906;43.536;26.068;2023-07-02T03:44:37;98083.13;;;20.87
40199;BMP280;25906;43.536;26.068;2023-07-02T03:47:22;98089.88;;;21.44
40199;BMP280;25906;43.536;26.068;2023-07-02T03:50:09;98092.44;;;21.81
40199;BMP280;25906;43.536;26.068;2023-07-02T03:52:54;98085.53;;;22.12
40199;BMP280;25906;43.536;26.068;2023-07-02T03:55:40;98084.44;;;22.55
40199;BMP280;25906;43.536;26.068;2023-07-02T03:58:26;98097.97;;;22.75
40199;BMP280;25906;43.536;26.068;2023-07-02T04:01:11;98097.13;;;23.01
40199;BMP280;25906;43.536;26.068;2023-07-02T04:03:56;98097.03;;;23.06
40199;BMP280;25906;43.536;26.068;2023-07-02T04:06:42;98098.88;;;23.11
40199;BMP280;25906;43.536;26.068;2023-07-02T04:09:27;98093.91;;;22.82
40199;BMP280;25906;43.536;26.068;2023-07-02T04:12:13;98096.53;;;22.61
40199;BMP280;25906;43.536;26.068;2023-07-02T04:14:58;98093.56;;;22.38
40199;BMP280;25906;43.536;26.068;2023-07-02T04:17:43;98097.31;;;22.22
40199;BMP280;25906;43.536;26.068;2023-07-02T04:20:29;98092.16;;;22.11
40199;BMP280;25906;43.536;26.068;2023-07-02T04:23:14;98090.38;;;22.01
40199;BMP280;25906;43.536;26.068;2023-07-02T04:26:00;98089.16;;;22.02
40199;BMP280;25906;43.536;26.068;2023-07-02T04:28:45;98103.97;;;21.95
40199;BMP280;25906;43.536;26.068;2023-07-02T04:31:31;98095.88;;;22.21
40199;BMP280;25906;43.536;26.068;2023-07-02T04:34:16;98101.50;;;22.70
40199;BMP280;25906;43.536;26.068;2023-07-02T04:37:05;98102.34;;;23.20
40199;BMP280;25906;43.536;26.068;2023-07-02T04:39:50;98096.09;;;23.45
40199;BMP280;25906;43.536;26.068;2023-07-02T04:42:36;98105.28;;;23.70
40199;BMP280;25906;43.536;26.068;2023-07-02T04:45:23;98101.84;;;23.62
40199;BMP280;25906;43.536;26.068;2023-07-02T04:48:09;98105.78;;;23.90
40199;BMP280;25906;43.536;26.068;2023-07-02T04:50:55;98105.38;;;24.14
40199;BMP280;25906;43.536;26.068;2023-07-02T04:53:40;98111.25;;;24.33
40199;BMP280;25906;43.536;26.068;2023-07-02T04:56:25;98109.56;;;24.22
40199;BMP280;25906;43.536;26.068;2023-07-02T04:59:12;98109.16;;;24.11
40199;BMP280;25906;43.536;26.068;2023-07-02T05:01:57;98108.97;;;24.09
40199;BMP280;25906;43.536;26.068;2023-07-02T05:04:42;98121.84;;;24.31
40199;BMP280;25906;43.536;26.068;2023-07-02T05:07:28;98128.25;;;24.48
40199;BMP280;25906;43.536;26.068;2023-07-02T05:10:13;98132.84;;;24.76
40199;BMP280;25906;43.536;26.068;2023-07-02T05:12:59;98134.84;;;24.91
40199;BMP280;25906;43.536;26.068;2023-07-02T05:15:44;98126.78;;;25.06
40199;BMP280;25906;43.536;26.068;2023-07-02T05:18:30;98127.53;;;25.06
40199;BMP280;25906;43.536;26.068;2023-07-02T05:21:18;98135.97;;;25.10
40199;BMP280;25906;43.536;26.068;2023-07-02T05:24:04;98132.94;;;25.44
40199;BMP280;25906;43.536;26.068;2023-07-02T05:26:50;98132.50;;;24.87
40199;BMP280;25906;43.536;26.068;2023-07-02T05:29:35;98129.31;;;25.57
40199;BMP280;25906;43.536;26.068;2023-07-02T05:32:21;98135.41;;;24.97
40199;BMP280;25906;43.536;26.068;2023-07-02T05:35:06;98140.13;;;25.72
40199;BMP280;25906;43.536;26.068;2023-07-02T05:37:52;98141.53;;;26.03
40199;BMP280;25906;43.536;26.068;2023-07-02T05:40:37;98141.03;;;26.37
40199;BMP280;25906;43.536;26.068;2023-07-02T05:43:23;98142.63;;;26.47
40199;BMP280;25906;43.536;26.068;2023-07-02T05:46:08;98136.16;;;26.35
40199;BMP280;25906;43.536;26.068;2023-07-02T05:48:53;98140.91;;;26.60
40199;BMP280;25906;43.536;26.068;2023-07-02T05:51:42;98141.16;;;26.54
40199;BMP280;25906;43.536;26.068;2023-07-02T05:54:27;98144.41;;;26.52
40199;BMP280;25906;43.536;26.068;2023-07-02T05:57:13;98140.38;;;26.93
40199;BMP280;25906;43.536;26.068;2023-07-02T05:59:58;98151.09;;;27.16
40199;BMP280;25906;43.536;26.068;2023-07-02T06:02:46;98130.06;;;27.16
40199;BMP280;25906;43.536;26.068;2023-07-02T06:05:32;98118.78;;;27.62
40199;BMP280;25906;43.536;26.068;2023-07-02T06:08:18;98118.72;;;27.52
40199;BMP280;25906;43.536;26.068;2023-07-02T06:11:03;98117.00;;;27.91
40199;BMP280;25906;43.536;26.068;2023-07-02T06:13:49;98124.47;;;28.34
40199;BMP280;25906;43.536;26.068;2023-07-02T06:16:34;98110.88;;;27.73
40199;BMP280;25906;43.536;26.068;2023-07-02T06:19:20;98113.81;;;27.85
40199;BMP280;25906;43.536;26.068;2023-07-02T06:22:05;98111.56;;;27.91
40199;BMP280;25906;43.536;26.068;2023-07-02T06:24:51;98111.03;;;27.75
40199;BMP280;25906;43.536;26.068;2023-07-02T06:27:36;98113.91;;;27.60
40199;BMP280;25906;43.536;26.068;2023-07-02T06:30:22;98112.69;;;27.71
40199;BMP280;25906;43.536;26.068;2023-07-02T06:33:07;98122.22;;;27.62
40199;BMP280;25906;43.536;26.068;2023-07-02T06:35:52;98124.91;;;27.28
40199;BMP280;25906;43.536;26.068;2023-07-02T06:38:38;98133.19;;;27.30
40199;BMP280;25906;43.536;26.068;2023-07-02T06:41:23;98134.47;;;27.12
40199;BMP280;25906;43.536;26.068;2023-07-02T06:44:08;98132.00;;;27.23
40199;BMP280;25906;43.536;26.068;2023-07-02T06:46:54;98125.78;;;27.31
40199;BMP280;25906;43.536;26.068;2023-07-02T06:49:39;98119.47;;;27.28
40199;BMP280;25906;43.536;26.068;2023-07-02T06:52:24;98117.81;;;27.08
40199;BMP280;25906;43.536;26.068;2023-07-02T06:55:10;98112.72;;;27.12
40199;BMP280;25906;43.536;26.068;2023-07-02T06:57:55;98121.94;;;27.34
40199;BMP280;25906;43.536;26.068;2023-07-02T07:00:41;98118.38;;;27.82
40199;BMP280;25906;43.536;26.068;2023-07-02T07:03:26;98122.34;;;28.16
40199;BMP280;25906;43.536;26.068;2023-07-02T07:06:11;98123.66;;;28.24
40199;BMP280;25906;43.536;26.068;2023-07-02T07:08:57;98122.69;;;28.02
40199;BMP280;25906;43.536;26.068;2023-07-02T07:11:43;98125.19;;;28.35
40199;BMP280;25906;43.536;26.068;2023-07-02T07:14:28;98122.72;;;28.56
40199;BMP280;25906;43.536;26.068;2023-07-02T07:17:14;98126.84;;;28.84
40199;BMP280;25906;43.536;26.068;2023-07-02T07:19:59;98131.97;;;28.79
40199;BMP280;25906;43.536;26.068;2023-07-02T07:22:44;98128.00;;;28.90
40199;BMP280;25906;43.536;26.068;2023-07-02T07:25:30;98123.13;;;28.89
40199;BMP280;25906;43.536;26.068;2023-07-02T07:28:15;98128.22;;;28.75
40199;BMP280;25906;43.536;26.068;2023-07-02T07:31:01;98129.59;;;28.30
40199;BMP280;25906;43.536;26.068;2023-07-02T07:33:47;98132.38;;;28.40
40199;BMP280;25906;43.536;26.068;2023-07-02T07:36:32;98140.69;;;28.15
40199;BMP280;25906;43.536;26.068;2023-07-02T07:39:18;98142.69;;;27.97
40199;BMP280;25906;43.536;26.068;2023-07-02T07:42:04;98141.97;;;27.63
40199;BMP280;25906;43.536;26.068;2023-07-02T07:44:49;98142.81;;;27.48
40199;BMP280;25906;43.536;26.068;2023-07-02T07:47:34;98142.97;;;27.33
40199;BMP280;25906;43.536;26.068;2023-07-02T07:50:20;98145.75;;;27.01
40199;BMP280;25906;43.536;26.068;2023-07-02T07:53:05;98145.84;;;26.86
40199;BMP280;25906;43.536;26.068;2023-07-02T07:55:51;98144.28;;;26.75
40199;BMP280;25906;43.536;26.068;2023-07-02T07:58:36;98143.75;;;26.77
40199;BMP280;25906;43.536;26.068;2023-07-02T08:01:21;98136.94;;;26.93
40199;BMP280;25906;43.536;26.068;2023-07-02T08:04:07;98143.41;;;27.22
40199;BMP280;25906;43.536;26.068;2023-07-02T08:06:52;98142.81;;;27.06
40199;BMP280;25906;43.536;26.068;2023-07-02T08:09:39;98138.69;;;26.98
40199;BMP280;25906;43.536;26.068;2023-07-02T08:12:25;98146.09;;;27.05
40199;BMP280;25906;43.536;26.068;2023-07-02T08:15:14;98143.75;;;27.26
40199;BMP280;25906;43.536;26.068;2023-07-02T08:18:00;98152.78;;;27.04
40199;BMP280;25906;43.536;26.068;2023-07-02T08:20:45;98153.34;;;27.27
40199;BMP280;25906;43.536;26.068;2023-07-02T08:23:30;98152.38;;;27.32
40199;BMP280;25906;43.536;26.068;2023-07-02T08:26:16;98155.06;;;27.40
40199;BMP280;25906;43.536;26.068;2023-07-02T08:29:01;98152.88;;;27.38
40199;BMP280;25906;43.536;26.068;2023-07-02T08:31:47;98149.03;;;27.66
40199;BMP280;25906;43.536;26.068;2023-07-02T08:34:32;98152.13;;;27.62
40199;BMP280;25906;43.536;26.068;2023-07-02T08:37:18;98155.81;;;27.91
40199;BMP280;25906;43.536;26.068;2023-07-02T08:40:04;98157.97;;;27.93
40199;BMP280;25906;43.536;26.068;2023-07-02T08:42:50;98154.78;;;28.04
40199;BMP280;25906;43.536;26.068;2023-07-02T08:45:36;98149.03;;;27.83
40199;BMP280;25906;43.536;26.068;2023-07-02T08:48:21;98151.13;;;27.92
40199;BMP280;25906;43.536;26.068;2023-07-02T08:51:09;98154.94;;;27.89
40199;BMP280;25906;43.536;26.068;2023-07-02T08:53:54;98155.84;;;27.74
40199;BMP280;25906;43.536;26.068;2023-07-02T08:56:40;98152.53;;;27.76
40199;BMP280;25906;43.536;26.068;2023-07-02T08:59:26;98160.28;;;27.62
40199;BMP280;25906;43.536;26.068;2023-07-02T09:02:11;98158.03;;;27.51
40199;BMP280;25906;43.536;26.068;2023-07-02T09:05:00;98167.06;;;27.54
40199;BMP280;25906;43.536;26.068;2023-07-02T09:07:47;98151.81;;;27.58
40199;BMP280;25906;43.536;26.068;2023-07-02T09:10:32;98165.13;;;27.47
40199;BMP280;25906;43.536;26.068;2023-07-02T09:13:18;98167.78;;;27.54
40199;BMP280;25906;43.536;26.068;2023-07-02T09:16:03;98174.00;;;27.22
40199;BMP280;25906;43.536;26.068;2023-07-02T09:19:16;98172.50;;;27.29
40199;BMP280;25906;43.536;26.068;2023-07-02T09:22:03;98173.47;;;27.24
40199;BMP280;25906;43.536;26.068;2023-07-02T09:24:53;98170.16;;;27.33
40199;BMP280;25906;43.536;26.068;2023-07-02T09:27:40;98164.72;;;27.33
40199;BMP280;25906;43.536;26.068;2023-07-02T09:30:27;98167.53;;;27.43
40199;BMP280;25906;43.536;26.068;2023-07-02T09:33:12;98165.34;;;27.41
40199;BMP280;25906;43.536;26.068;2023-07-02T09:35:58;98162.16;;;27.35
40199;BMP280;25906;43.536;26.068;2023-07-02T09:38:43;98161.56;;;27.61
40199;BMP280;25906;43.536;26.068;2023-07-02T09:41:29;98159.13;;;27.48
40199;BMP280;25906;43.536;26.068;2023-07-02T09:44:14;98160.34;;;27.55
40199;BMP280;25906;43.536;26.068;2023-07-02T09:47:02;98156.91;;;27.54
40199;BMP280;25906;43.536;26.068;2023-07-02T09:49:59;98159.53;;;27.45
40199;BMP280;25906;43.536;26.068;2023-07-02T09:52:48;98163.03;;;27.38
40199;BMP280;25906;43.536;26.068;2023-07-02T09:55:33;98165.03;;;27.37
40199;BMP280;25906;43.536;26.068;2023-07-02T09:58:19;98159.53;;;27.45
40199;BMP280;25906;43.536;26.068;2023-07-02T10:01:04;98164.34;;;27.29
40199;BMP280;25906;43.536;26.068;2023-07-02T10:03:49;98160.38;;;27.30
40199;BMP280;25906;43.536;26.068;2023-07-02T10:06:47;98166.09;;;27.17
40199;BMP280;25906;43.536;26.068;2023-07-02T10:09:39;98169.19;;;27.13
40199;BMP280;25906;43.536;26.068;2023-07-02T10:12:26;98188.28;;;27.31
40199;BMP280;25906;43.536;26.068;2023-07-02T10:15:12;98185.00;;;27.32
40199;BMP280;25906;43.536;26.068;2023-07-02T10:17:58;98182.47;;;27.34
40199;BMP280;25906;43.536;26.068;2023-07-02T10:20:44;98192.00;;;27.18
40199;BMP280;25906;43.536;26.068;2023-07-02T10:23:35;98179.75;;;27.09
40199;BMP280;25906;43.536;26.068;2023-07-02T10:26:21;98176.31;;;26.77
40199;BMP280;25906;43.536;26.068;2023-07-02T10:29:06;98174.41;;;26.94
40199;BMP280;25906;43.536;26.068;2023-07-02T10:31:57;98173.72;;;27.18
40199;BMP280;25906;43.536;26.068;2023-07-02T10:34:42;98178.16;;;27.48
40199;BMP280;25906;43.536;26.068;2023-07-02T10:37:35;98165.88;;;27.64
40199;BMP280;25906;43.536;26.068;2023-07-02T10:40:22;98167.28;;;27.90
40199;BMP280;25906;43.536;26.068;2023-07-02T10:43:07;98155.66;;;27.89
40199;BMP280;25906;43.536;26.068;2023-07-02T10:45:53;98152.84;;;28.14
40199;BMP280;25906;43.536;26.068;2023-07-02T10:48:39;98149.53;;;28.33
40199;BMP280;25906;43.536;26.068;2023-07-02T10:51:24;98147.41;;;28.94
40199;BMP280;25906;43.536;26.068;2023-07-02T10:54:11;98150.47;;;28.81
40199;BMP280;25906;43.536;26.068;2023-07-02T10:56:57;98143.88;;;29.11
40199;BMP280;25906;43.536;26.068;2023-07-02T10:59:43;98143.03;;;29.18
40199;BMP280;25906;43.536;26.068;2023-07-02T11:02:39;98152.00;;;28.65
40199;BMP280;25906;43.536;26.068;2023-07-02T11:05:25;98146.47;;;28.82
40199;BMP280;25906;43.536;26.068;2023-07-02T11:08:10;98137.41;;;28.70
40199;BMP280;25906;43.536;26.068;2023-07-02T11:11:08;98142.31;;;29.17
40199;BMP280;25906;43.536;26.068;2023-07-02T11:13:53;98144.25;;;29.07
40199;BMP280;25906;43.536;26.068;2023-07-02T11:16:39;98145.75;;;29.18
40199;BMP280;25906;43.536;26.068;2023-07-02T11:19:25;98143.28;;;29.12
40199;BMP280;25906;43.536;26.068;2023-07-02T11:22:10;98139.47;;;29.34
40199;BMP280;25906;43.536;26.068;2023-07-02T11:24:55;98135.03;;;29.48
40199;BMP280;25906;43.536;26.068;2023-07-02T11:27:41;98135.78;;;29.59
40199;BMP280;25906;43.536;26.068;2023-07-02T11:30:27;98141.03;;;29.37
40199;BMP280;25906;43.536;26.068;2023-07-02T11:33:12;98136.88;;;29.27
40199;BMP280;25906;43.536;26.068;2023-07-02T11:35:58;98137.03;;;29.38
40199;BMP280;25906;43.536;26.068;2023-07-02T11:38:43;98140.44;;;29.29
40199;BMP280;25906;43.536;26.068;2023-07-02T11:41:38;98137.34;;;28.97
40199;BMP280;25906;43.536;26.068;2023-07-02T11:44:24;98141.19;;;28.84
40199;BMP280;25906;43.536;26.068;2023-07-02T11:47:09;98130.94;;;29.11
40199;BMP280;25906;43.536;26.068;2023-07-02T11:49:54;98126.28;;;29.50
40199;BMP280;25906;43.536;26.068;2023-07-02T11:52:40;98126.28;;;29.69
40199;BMP280;25906;43.536;26.068;2023-07-02T11:55:25;98123.66;;;30.00
40199;BMP280;25906;43.536;26.068;2023-07-02T11:58:10;98112.22;;;30.32
40199;BMP280;25906;43.536;26.068;2023-07-02T12:00:56;98103.38;;;30.22
40199;BMP280;25906;43.536;26.068;2023-07-02T12:03:41;98103.38;;;30.22
40199;BMP280;25906;43.536;26.068;2023-07-02T12:06:27;98099.44;;;30.34
40199;BMP280;25906;43.536;26.068;2023-07-02T12:09:12;98109.59;;;30.03
40199;BMP280;25906;43.536;26.068;2023-07-02T12:11:57;98112.31;;;30.13
40199;BMP280;25906;43.536;26.068;2023-07-02T12:14:43;98115.66;;;30.42
40199;BMP280;25906;43.536;26.068;2023-07-02T12:17:28;98108.50;;;30.37
40199;BMP280;25906;43.536;26.068;2023-07-02T12:20:14;98103.31;;;30.41
40199;BMP280;25906;43.536;26.068;2023-07-02T12:22:59;98089.22;;;29.85
40199;BMP280;25906;43.536;26.068;2023-07-02T12:25:44;98098.34;;;30.18
40199;BMP280;25906;43.536;26.068;2023-07-02T12:28:30;98097.75;;;30.20
40199;BMP280;25906;43.536;26.068;2023-07-02T12:31:15;98097.94;;;30.03
40199;BMP280;25906;43.536;26.068;2023-07-02T12:34:01;98098.16;;;30.26
40199;BMP280;25906;43.536;26.068;2023-07-02T12:36:48;98094.66;;;29.95
40199;BMP280;25906;43.536;26.068;2023-07-02T12:39:33;98099.84;;;29.91
40199;BMP280;25906;43.536;26.068;2023-07-02T12:42:18;98093.97;;;29.85
40199;BMP280;25906;43.536;26.068;2023-07-02T12:45:05;98088.94;;;29.91
40199;BMP280;25906;43.536;26.068;2023-07-02T12:47:51;98095.25;;;29.74
40199;BMP280;25906;43.536;26.068;2023-07-02T12:50:39;98088.34;;;29.92
40199;BMP280;25906;43.536;26.068;2023-07-02T12:53:25;98086.34;;;30.02
40199;BMP280;25906;43.536;26.068;2023-07-02T12:56:11;98091.03;;;30.11
40199;BMP280;25906;43.536;26.068;2023-07-02T12:58:56;98098.13;;;29.86
40199;BMP280;25906;43.536;26.068;2023-07-02T13:01:42;98097.63;;;30.08
40199;BMP280;25906;43.536;26.068;2023-07-02T13:04:27;98099.78;;;30.19
40199;BMP280;25906;43.536;26.068;2023-07-02T13:07:12;98099.41;;;29.85
40199;BMP280;25906;43.536;26.068;2023-07-02T13:09:58;98104.03;;;29.73
40199;BMP280;25906;43.536;26.068;2023-07-02T13:12:43;98099.69;;;29.89
40199;BMP280;25906;43.536;26.068;2023-07-02T13:15:28;98099.09;;;30.00
40199;BMP280;25906;43.536;26.068;2023-07-02T13:18:14;98090.56;;;30.24
40199;BMP280;25906;43.536;26.068;2023-07-02T13:20:59;98105.00;;;30.06
40199;BMP280;25906;43.536;26.068;2023-07-02T13:23:44;98092.22;;;29.80
40199;BMP280;25906;43.536;26.068;2023-07-02T13:26:30;98091.06;;;29.92
40199;BMP280;25906;43.536;26.068;2023-07-02T13:29:15;98082.16;;;30.01
40199;BMP280;25906;43.536;26.068;2023-07-02T13:32:01;98089.19;;;30.04
40199;BMP280;25906;43.536;26.068;2023-07-02T13:34:47;98090.97;;;30.30
40199;BMP280;25906;43.536;26.068;2023-07-02T13:37:32;98086.28;;;30.12
40199;BMP280;25906;43.536;26.068;2023-07-02T13:40:18;98085.44;;;30.00
40199;BMP280;25906;43.536;26.068;2023-07-02T13:43:03;98079.91;;;29.79
40199;BMP280;25906;43.536;26.068;2023-07-02T13:45:49;98079.88;;;29.98
40199;BMP280;25906;43.536;26.068;2023-07-02T13:48:34;98075.16;;;29.79
40199;BMP280;25906;43.536;26.068;2023-07-02T13:51:20;98079.44;;;29.92
40199;BMP280;25906;43.536;26.068;2023-07-02T13:54:05;98075.41;;;30.02
40199;BMP280;25906;43.536;26.068;2023-07-02T13:56:51;98081.16;;;29.97
40199;BMP280;25906;43.536;26.068;2023-07-02T13:59:37;98078.25;;;30.14
40199;BMP280;25906;43.536;26.068;2023-07-02T14:02:23;98080.56;;;30.08
40199;BMP280;25906;43.536;26.068;2023-07-02T14:05:09;98075.50;;;30.14
40199;BMP280;25906;43.536;26.068;2023-07-02T14:07:54;98076.13;;;29.93
40199;BMP280;25906;43.536;26.068;2023-07-02T14:10:40;98079.00;;;29.95
40199;BMP280;25906;43.536;26.068;2023-07-02T14:13:25;98075.97;;;30.10
40199;BMP280;25906;43.536;26.068;2023-07-02T14:16:10;98073.66;;;30.07
40199;BMP280;25906;43.536;26.068;2023-07-02T14:18:56;98067.47;;;30.16
40199;BMP280;25906;43.536;26.068;2023-07-02T14:21:41;98059.72;;;30.22
40199;BMP280;25906;43.536;26.068;2023-07-02T14:24:27;98059.19;;;30.04
40199;BMP280;25906;43.536;26.068;2023-07-02T14:27:15;98054.88;;;29.92
40199;BMP280;25906;43.536;26.068;2023-07-02T14:30:01;98052.31;;;29.75
40199;BMP280;25906;43.536;26.068;2023-07-02T14:32:48;98054.06;;;29.70
40199;BMP280;25906;43.536;26.068;2023-07-02T14:35:34;98052.78;;;29.62
40199;BMP280;25906;43.536;26.068;2023-07-02T14:38:20;98052.78;;;29.42
40199;BMP280;25906;43.536;26.068;2023-07-02T14:41:06;98047.47;;;29.64
40199;BMP280;25906;43.536;26.068;2023-07-02T14:43:51;98051.91;;;29.88
40199;BMP280;25906;43.536;26.068;2023-07-02T14:46:37;98047.47;;;29.64
40199;BMP280;25906;43.536;26.068;2023-07-02T14:49:25;98043.88;;;29.61
40199;BMP280;25906;43.536;26.068;2023-07-02T14:52:16;98040.25;;;29.68
40199;BMP280;25906;43.536;26.068;2023-07-02T14:55:04;98044.19;;;29.55
40199;BMP280;25906;43.536;26.068;2023-07-02T14:57:50;98047.63;;;29.56
40199;BMP280;25906;43.536;26.068;2023-07-02T15:00:36;98053.06;;;29.37
40199;BMP280;25906;43.536;26.068;2023-07-02T15:03:23;98041.03;;;29.30
40199;BMP280;25906;43.536;26.068;2023-07-02T15:06:14;98057.66;;;29.15
40199;BMP280;25906;43.536;26.068;2023-07-02T15:08:59;98048.84;;;28.78
40199;BMP280;25906;43.536;26.068;2023-07-02T15:11:45;98059.16;;;28.80
40199;BMP280;25906;43.536;26.068;2023-07-02T15:14:30;98042.81;;;28.90
40199;BMP280;25906;43.536;26.068;2023-07-02T15:17:15;98052.72;;;28.85
40199;BMP280;25906;43.536;26.068;2023-07-02T15:20:01;98055.22;;;28.64
40199;BMP280;25906;43.536;26.068;2023-07-02T15:22:48;98061.44;;;28.74
40199;BMP280;25906;43.536;26.068;2023-07-02T15:25:34;98058.38;;;28.60
40199;BMP280;25906;43.536;26.068;2023-07-02T15:28:20;98061.59;;;28.40
40199;BMP280;25906;43.536;26.068;2023-07-02T15:31:07;98064.63;;;28.17
40199;BMP280;25906;43.536;26.068;2023-07-02T15:33:53;98068.03;;;28.35
40199;BMP280;25906;43.536;26.068;2023-07-02T15:36:39;98073.72;;;28.02
40199;BMP280;25906;43.536;26.068;2023-07-02T15:39:24;98083.31;;;28.03
40199;BMP280;25906;43.536;26.068;2023-07-02T15:42:11;98092.66;;;28.10